Terminal Aerodrome Forecast
Issued by NWS Los Angeles, CA

Home | Current Version | Previous Version | Text Only | Print | Product List | Glossary On
Versions: 1 2 3 4 5 6 7 8 9 10 11 12 13 14 15 16 17 18 19 20 21
000
FTUS46 KLOX 290500
TAFSMX
TAF
KSMX 290538Z 2906/3006 VRB03KT P6SM SCT004
     FM291300 VRB03KT 4SM BR BKN002
     FM291700 34006KT P6SM SCT005
     FM292100 31014KT P6SM SKC
     FM300300 VRB05KT P6SM SKC=

USA.gov is the U.S. government's official web portal to all federal, state and local government web resources and services.